Time;durP1;ratioP1;P1;durP2;ratioP2;P2;SDS_P1;SDS_P2;PMS_P1;PMS_P2;Temp;Humidity;BMP_temperature;BMP_pressure;BME280_temperature;BME280_humidity;BME280_pressure;Samples;Min_cycle;Max_cycle;Signal;HPM_P1;HPM_P2
2022/06/29 00:00:05;;;;;;;;;;;15.10;99.90;;;;;;5083568;28;19919;-62
2022/06/29 00:02:31;;;;;;;;;;;15.10;99.90;;;;;;5087227;28;19912;-60
2022/06/29 00:04:56;;;;;;;;;;;15.00;99.90;;;;;;5087038;28;19923;-59
2022/06/29 00:07:22;;;;;;;;;;;15.00;99.90;;;;;;5087972;28;19912;-60
2022/06/29 00:09:47;;;;;;;;;;;15.00;99.90;;;;;;5086711;28;21370;-59
2022/06/29 00:12:13;;;;;;;;;;;15.00;99.90;;;;;;5084266;28;19916;-60
2022/06/29 00:14:41;;;;;;;;;;;15.00;99.90;;;;;;5086431;28;19920;-60
2022/06/29 00:17:11;;;;;;;;;;;15.00;99.90;;;;;;5085825;28;19912;-61
2022/06/29 00:19:36;;;;;;;;;;;15.00;99.90;;;;;;5067129;28;19951;-60
2022/06/29 00:22:02;;;;;;;;;;;14.90;99.90;;;;;;5087259;28;20440;-60
2022/06/29 00:24:29;;;;;;;;;;;15.00;99.90;;;;;;5086418;28;19920;-60
2022/06/29 00:26:54;;;;;;;;;;;14.90;99.90;;;;;;5081243;28;19912;-60
2022/06/29 00:29:20;;;;;;;;;;;14.90;99.90;;;;;;5084107;28;19982;-61
2022/06/29 00:31:45;;;;;;;;;;;15.00;99.90;;;;;;5085316;28;19913;-61
2022/06/29 00:34:11;;;;;;;;;;;15.00;99.90;;;;;;5082647;28;20384;-60
2022/06/29 00:36:37;;;;;;;;;;;15.00;99.90;;;;;;5086427;28;19912;-61
2022/06/29 00:39:02;;;;;;;;;;;15.00;99.90;;;;;;5083784;28;19923;-61
2022/06/29 00:41:28;;;;;;;;;;;15.00;99.90;;;;;;5085824;28;19916;-61
2022/06/29 00:43:53;;;;;;;;;;;15.00;99.90;;;;;;5068778;28;19939;-62
2022/06/29 00:46:19;;;;;;;;;;;15.00;99.90;;;;;;5086458;28;20327;-61
2022/06/29 00:48:44;;;;;;;;;;;14.90;99.90;;;;;;5067623;28;20262;-61
2022/06/29 00:51:11;;;;;;;;;;;15.00;99.90;;;;;;5085349;28;20267;-60
2022/06/29 00:53:39;;;;;;;;;;;14.90;99.90;;;;;;5086185;28;19944;-61
2022/06/29 00:56:07;;;;;;;;;;;15.00;99.90;;;;;;5086053;28;19920;-60
2022/06/29 00:58:33;;;;;;;;;;;15.00;99.90;;;;;;5084717;28;20370;-60
2022/06/29 01:01:03;;;;;;;;;;;15.00;99.90;;;;;;5087856;28;19912;-60
2022/06/29 01:03:29;;;;;;;;;;;15.00;99.90;;;;;;5087478;28;20011;-60
2022/06/29 01:05:55;;;;;;;;;;;15.00;99.90;;;;;;5083229;28;19920;-60
2022/06/29 01:08:20;;;;;;;;;;;15.00;99.90;;;;;;5086467;28;19913;-61
2022/06/29 01:10:46;;;;;;;;;;;15.00;99.90;;;;;;5081538;28;19922;-61
2022/06/29 01:13:12;;;;;;;;;;;15.10;99.90;;;;;;5084910;28;20004;-60
2022/06/29 01:15:37;;;;;;;;;;;15.00;99.90;;;;;;5085723;28;20316;-60
2022/06/29 01:18:03;;;;;;;;;;;15.00;99.90;;;;;;5087248;28;19934;-60
2022/06/29 01:20:29;;;;;;;;;;;15.00;99.90;;;;;;5084887;28;19947;-61
2022/06/29 01:22:54;;;;;;;;;;;15.10;99.90;;;;;;5084778;28;19927;-61
2022/06/29 01:25:20;;;;;;;;;;;15.10;99.90;;;;;;5085682;28;19920;-61
2022/06/29 01:27:46;;;;;;;;;;;15.10;99.90;;;;;;5084324;28;19920;-60
2022/06/29 01:30:12;;;;;;;;;;;15.20;99.90;;;;;;5086383;28;19912;-60
2022/06/29 01:32:38;;;;;;;;;;;15.20;99.90;;;;;;5064781;28;20292;-60
2022/06/29 01:35:08;;;;;;;;;;;15.30;99.90;;;;;;5085312;28;19927;-62
2022/06/29 01:37:33;;;;;;;;;;;15.20;99.90;;;;;;5083344;28;19919;-60
2022/06/29 01:39:59;;;;;;;;;;;15.20;99.90;;;;;;5082285;28;19912;-61
2022/06/29 01:42:25;;;;;;;;;;;15.20;99.90;;;;;;5086063;28;19923;-61
2022/06/29 01:44:50;;;;;;;;;;;15.20;99.90;;;;;;5083847;28;19924;-61
2022/06/29 01:47:16;;;;;;;;;;;15.30;99.90;;;;;;5086457;28;19924;-61
2022/06/29 01:49:41;;;;;;;;;;;15.30;99.90;;;;;;5085175;28;19945;-60
2022/06/29 01:52:07;;;;;;;;;;;15.30;99.90;;;;;;5084779;28;19912;-61
2022/06/29 01:54:32;;;;;;;;;;;15.30;99.90;;;;;;5084895;28;20281;-62
2022/06/29 01:56:58;;;;;;;;;;;15.30;99.90;;;;;;5083171;28;20363;-60
2022/06/29 01:59:23;;;;;;;;;;;15.20;99.90;;;;;;5082984;28;20335;-61
2022/06/29 02:01:49;;;;;;;;;;;15.20;99.90;;;;;;5085825;28;20266;-61
2022/06/29 02:04:15;;;;;;;;;;;15.20;99.90;;;;;;5087296;28;20019;-61
2022/06/29 02:06:40;;;;;;;;;;;15.10;99.90;;;;;;5083897;28;19966;-61
2022/06/29 02:09:06;;;;;;;;;;;15.00;99.90;;;;;;5084515;28;19958;-60
2022/06/29 02:11:31;;;;;;;;;;;15.00;99.90;;;;;;5083811;28;20273;-60
2022/06/29 02:13:57;;;;;;;;;;;15.00;99.90;;;;;;5084044;28;19943;-60
2022/06/29 02:16:22;;;;;;;;;;;15.10;99.90;;;;;;5083780;28;19918;-60
2022/06/29 02:18:48;;;;;;;;;;;15.20;99.90;;;;;;5081995;28;19919;-60
2022/06/29 02:21:14;;;;;;;;;;;15.10;99.90;;;;;;5086756;28;19960;-60
2022/06/29 02:23:39;;;;;;;;;;;15.10;99.90;;;;;;5084563;28;19920;-60
2022/06/29 02:26:06;;;;;;;;;;;15.10;99.90;;;;;;5081496;28;19912;-61
2022/06/29 02:28:32;;;;;;;;;;;15.00;99.90;;;;;;5082326;28;19920;-60
2022/06/29 02:36:26;;;;;;;;;;;15.00;99.90;;;;;;5081677;28;20266;-61
2022/06/29 02:38:52;;;;;;;;;;;14.90;99.90;;;;;;5087419;28;19916;-60
2022/06/29 02:41:17;;;;;;;;;;;14.80;99.90;;;;;;5087925;28;19966;-59
2022/06/29 02:43:45;;;;;;;;;;;14.70;99.90;;;;;;5088697;28;19934;-60
2022/06/29 02:46:10;;;;;;;;;;;14.70;99.90;;;;;;5064670;28;20320;-59
2022/06/29 02:48:36;;;;;;;;;;;14.60;99.90;;;;;;5089187;28;19912;-59
2022/06/29 02:51:01;;;;;;;;;;;14.60;99.90;;;;;;5089730;28;20491;-61
2022/06/29 02:53:27;;;;;;;;;;;14.60;99.90;;;;;;5084130;28;19912;-60
2022/06/29 02:55:53;;;;;;;;;;;14.60;99.90;;;;;;5089861;28;19948;-60
2022/06/29 02:58:19;;;;;;;;;;;14.50;99.90;;;;;;5088381;28;20422;-60
2022/06/29 03:00:44;;;;;;;;;;;14.50;99.90;;;;;;5086852;28;19924;-61
2022/06/29 03:03:10;;;;;;;;;;;14.40;99.90;;;;;;5068846;28;19977;-61
2022/06/29 03:05:36;;;;;;;;;;;14.40;99.90;;;;;;5086919;28;19912;-61
2022/06/29 03:08:01;;;;;;;;;;;14.40;99.90;;;;;;5088277;28;20310;-59
2022/06/29 03:10:27;;;;;;;;;;;14.30;99.90;;;;;;5086594;28;19912;-60
2022/06/29 03:12:53;;;;;;;;;;;14.30;99.90;;;;;;5087508;28;20321;-60
2022/06/29 03:15:18;;;;;;;;;;;14.30;99.90;;;;;;5089025;28;19920;-61
2022/06/29 03:17:47;;;;;;;;;;;14.20;99.90;;;;;;5085317;28;20255;-60
2022/06/29 03:20:13;;;;;;;;;;;14.20;99.90;;;;;;5088714;28;19920;-63
2022/06/29 03:22:39;;;;;;;;;;;14.20;99.90;;;;;;5083907;28;19920;-60
2022/06/29 03:25:04;;;;;;;;;;;14.20;99.90;;;;;;5087545;28;20203;-61
2022/06/29 03:27:32;;;;;;;;;;;14.10;99.90;;;;;;5083635;28;19912;-61
2022/06/29 03:29:58;;;;;;;;;;;14.00;99.90;;;;;;5089076;28;19959;-60
2022/06/29 03:32:23;;;;;;;;;;;14.10;99.90;;;;;;5061019;28;19917;-61
2022/06/29 03:34:49;;;;;;;;;;;14.10;99.90;;;;;;5068158;28;20289;-60
2022/06/29 03:37:14;;;;;;;;;;;14.00;99.90;;;;;;5086249;28;19912;-60
2022/06/29 03:39:41;;;;;;;;;;;14.00;99.90;;;;;;5086385;28;19916;-61
2022/06/29 03:42:07;;;;;;;;;;;14.00;99.90;;;;;;5070840;28;19966;-60
2022/06/29 03:44:33;;;;;;;;;;;14.00;99.90;;;;;;5087994;28;19920;-61
2022/06/29 03:46:58;;;;;;;;;;;14.00;99.90;;;;;;5068446;28;19912;-61
2022/06/29 03:49:24;;;;;;;;;;;14.00;99.90;;;;;;5087353;28;20002;-60
2022/06/29 03:51:49;;;;;;;;;;;14.00;99.90;;;;;;5084530;28;20323;-60
2022/06/29 03:54:15;;;;;;;;;;;13.90;99.90;;;;;;5087074;28;19917;-59
2022/06/29 03:56:40;;;;;;;;;;;13.80;99.90;;;;;;5084560;28;19912;-60
2022/06/29 03:59:06;;;;;;;;;;;13.80;99.90;;;;;;5086450;28;19919;-61
2022/06/29 04:01:31;;;;;;;;;;;13.70;99.90;;;;;;5087301;28;19916;-62
2022/06/29 04:03:57;;;;;;;;;;;13.80;99.90;;;;;;5086510;28;19973;-61
2022/06/29 04:06:23;;;;;;;;;;;13.80;99.90;;;;;;5086167;28;20270;-61
2022/06/29 04:08:48;;;;;;;;;;;13.80;99.90;;;;;;5068761;28;19912;-60
2022/06/29 04:13:58;;;;;;;;;;;13.90;99.90;;;;;;5087657;28;19977;-60
2022/06/29 04:16:23;;;;;;;;;;;14.00;99.90;;;;;;5064803;28;19920;-60
2022/06/29 04:18:49;;;;;;;;;;;13.90;99.90;;;;;;5082581;28;19913;-60
2022/06/29 04:21:14;;;;;;;;;;;14.00;99.90;;;;;;5082991;28;20019;-60
2022/06/29 04:23:40;;;;;;;;;;;14.10;99.90;;;;;;5085043;28;20258;-60
2022/06/29 04:26:08;;;;;;;;;;;14.00;99.90;;;;;;5086400;28;19912;-61
2022/06/29 04:28:34;;;;;;;;;;;14.00;99.90;;;;;;5085717;28;19923;-59
2022/06/29 04:31:01;;;;;;;;;;;14.00;99.90;;;;;;5086936;28;19913;-60
2022/06/29 04:33:26;;;;;;;;;;;13.90;99.90;;;;;;5085387;28;19920;-61
2022/06/29 04:35:52;;;;;;;;;;;13.90;99.90;;;;;;5087071;28;20293;-62
2022/06/29 04:38:17;;;;;;;;;;;13.90;99.90;;;;;;5086005;28;20370;-61
2022/06/29 04:40:43;;;;;;;;;;;13.90;99.90;;;;;;5088974;28;19916;-61
2022/06/29 04:43:09;;;;;;;;;;;13.90;99.90;;;;;;5087649;28;19966;-60
2022/06/29 04:48:19;;;;;;;;;;;13.60;99.90;;;;;;5088707;28;19923;-60
2022/06/29 04:50:45;;;;;;;;;;;13.50;99.90;;;;;;5089309;28;19943;-60
2022/06/29 04:53:10;;;;;;;;;;;13.50;99.90;;;;;;5087876;28;20010;-61
2022/06/29 04:55:36;;;;;;;;;;;13.50;99.90;;;;;;5089158;28;19920;-61
2022/06/29 04:58:01;;;;;;;;;;;13.50;99.90;;;;;;5088248;28;20357;-61
2022/06/29 05:00:27;;;;;;;;;;;13.70;99.90;;;;;;5065376;28;19927;-60
2022/06/29 05:02:52;;;;;;;;;;;13.90;99.90;;;;;;5086858;28;20258;-61
2022/06/29 05:05:18;;;;;;;;;;;14.10;99.90;;;;;;5085824;28;19928;-61
2022/06/29 05:07:44;;;;;;;;;;;14.20;99.90;;;;;;5086868;28;19916;-61
2022/06/29 05:10:09;;;;;;;;;;;14.40;99.90;;;;;;5085090;28;19974;-60
2022/06/29 05:12:38;;;;;;;;;;;14.50;99.90;;;;;;5084985;28;19912;-61
2022/06/29 05:15:04;;;;;;;;;;;14.70;99.90;;;;;;5086456;28;19912;-60
2022/06/29 05:17:36;;;;;;;;;;;14.80;99.90;;;;;;5082798;28;19927;-61
2022/06/29 05:20:05;;;;;;;;;;;14.90;99.90;;;;;;5084936;28;19920;-61
2022/06/29 05:22:31;;;;;;;;;;;15.00;99.90;;;;;;5082630;28;19919;-59
2022/06/29 05:24:56;;;;;;;;;;;14.90;99.90;;;;;;5085709;28;19927;-61
2022/06/29 05:27:22;;;;;;;;;;;14.80;99.90;;;;;;5069848;28;19912;-63
2022/06/29 05:29:48;;;;;;;;;;;14.90;99.90;;;;;;5086213;28;19951;-61
2022/06/29 05:32:13;;;;;;;;;;;15.00;99.90;;;;;;5068495;28;20313;-62
2022/06/29 05:34:39;;;;;;;;;;;15.10;99.90;;;;;;5085572;28;20582;-61
2022/06/29 05:37:04;;;;;;;;;;;15.10;99.90;;;;;;5089188;28;19919;-59
2022/06/29 05:39:30;;;;;;;;;;;15.20;99.90;;;;;;5088349;28;20006;-61
2022/06/29 05:41:55;;;;;;;;;;;15.30;99.90;;;;;;5087271;28;19963;-61
2022/06/29 05:44:21;;;;;;;;;;;15.30;99.90;;;;;;5084878;28;19930;-60
2022/06/29 05:46:46;;;;;;;;;;;15.30;99.90;;;;;;5081493;28;19920;-62
2022/06/29 05:49:12;;;;;;;;;;;15.20;99.90;;;;;;5076966;28;20318;-59
2022/06/29 05:51:38;;;;;;;;;;;15.10;99.90;;;;;;5085936;28;20375;-61
2022/06/29 05:54:03;;;;;;;;;;;15.00;99.90;;;;;;5085260;28;19955;-59
2022/06/29 05:56:29;;;;;;;;;;;14.90;99.90;;;;;;5067331;28;19922;-61
2022/06/29 05:58:54;;;;;;;;;;;15.00;99.90;;;;;;5083983;28;20018;-61
2022/06/29 06:01:20;;;;;;;;;;;15.10;99.90;;;;;;5085693;28;19916;-60
2022/06/29 06:03:46;;;;;;;;;;;15.10;99.90;;;;;;5084983;28;19928;-60
2022/06/29 06:06:12;;;;;;;;;;;15.10;99.90;;;;;;5084134;28;19920;-61
2022/06/29 06:08:37;;;;;;;;;;;15.20;99.90;;;;;;5086327;28;19959;-60
2022/06/29 06:11:03;;;;;;;;;;;15.20;99.90;;;;;;5087201;28;19972;-60
2022/06/29 06:13:29;;;;;;;;;;;15.20;99.90;;;;;;5088010;28;19916;-60
2022/06/29 06:15:54;;;;;;;;;;;15.20;99.90;;;;;;5090385;28;19985;-63
2022/06/29 06:18:20;;;;;;;;;;;15.20;99.90;;;;;;5087106;28;19912;-60
2022/06/29 06:20:46;;;;;;;;;;;15.30;99.90;;;;;;5091198;28;20131;-61
2022/06/29 06:23:11;;;;;;;;;;;15.50;99.90;;;;;;5087682;28;19969;-59
2022/06/29 06:25:37;;;;;;;;;;;15.60;99.90;;;;;;5086568;28;19927;-61
2022/06/29 06:28:05;;;;;;;;;;;15.80;99.90;;;;;;5087108;28;20254;-60
2022/06/29 06:30:32;;;;;;;;;;;15.90;99.90;;;;;;5090403;28;19920;-60
2022/06/29 06:32:57;;;;;;;;;;;16.00;99.90;;;;;;5087866;28;19912;-61
2022/06/29 06:35:23;;;;;;;;;;;16.10;99.90;;;;;;5090404;28;20350;-60
2022/06/29 06:37:48;;;;;;;;;;;16.10;99.90;;;;;;5071485;28;19920;-60
2022/06/29 06:42:59;;;;;;;;;;;16.20;99.90;;;;;;5087685;28;20272;-59
2022/06/29 06:45:25;;;;;;;;;;;16.50;99.90;;;;;;5087031;28;19928;-60
2022/06/29 06:47:52;;;;;;;;;;;16.60;99.90;;;;;;5088885;28;19916;-61
2022/06/29 06:50:17;;;;;;;;;;;16.70;99.90;;;;;;5087607;28;20007;-60
2022/06/29 06:52:43;;;;;;;;;;;16.90;99.90;;;;;;5086982;28;20106;-61
2022/06/29 06:55:09;;;;;;;;;;;16.90;99.90;;;;;;5087493;28;19912;-62
2022/06/29 06:57:34;;;;;;;;;;;16.90;99.90;;;;;;5087319;28;19912;-58
2022/06/29 07:00:00;;;;;;;;;;;16.90;99.90;;;;;;5086424;28;19920;-62
2022/06/29 07:02:26;;;;;;;;;;;17.00;99.90;;;;;;5068021;28;20277;-61
2022/06/29 07:04:52;;;;;;;;;;;17.10;99.90;;;;;;5086481;28;19960;-61
2022/06/29 07:07:18;;;;;;;;;;;17.10;99.90;;;;;;5088123;28;19949;-61
2022/06/29 07:09:43;;;;;;;;;;;17.10;99.90;;;;;;5087400;28;19950;-59
2022/06/29 07:12:09;;;;;;;;;;;17.10;99.90;;;;;;5069011;28;19912;-60
2022/06/29 07:14:34;;;;;;;;;;;17.20;99.90;;;;;;5092362;28;19962;-61
2022/06/29 07:17:00;;;;;;;;;;;17.10;99.90;;;;;;5090490;28;19921;-61
2022/06/29 07:19:25;;;;;;;;;;;17.20;99.90;;;;;;5086697;28;19927;-60
2022/06/29 07:21:51;;;;;;;;;;;17.30;99.90;;;;;;5087348;28;19974;-60
2022/06/29 07:24:16;;;;;;;;;;;17.40;99.90;;;;;;5084891;28;19920;-62
2022/06/29 07:26:42;;;;;;;;;;;17.40;99.90;;;;;;5083867;28;19965;-62
2022/06/29 07:29:08;;;;;;;;;;;17.20;99.90;;;;;;5083861;28;19912;-62
2022/06/29 07:31:33;;;;;;;;;;;17.00;99.90;;;;;;5083694;28;19924;-61
2022/06/29 07:33:59;;;;;;;;;;;16.90;99.90;;;;;;5070378;28;20456;-60
2022/06/29 07:36:25;;;;;;;;;;;16.80;99.90;;;;;;5086448;28;20002;-60
2022/06/29 07:38:51;;;;;;;;;;;17.10;99.90;;;;;;5087385;28;20388;-61
2022/06/29 07:41:17;;;;;;;;;;;17.40;99.90;;;;;;5087809;28;20304;-60
2022/06/29 07:43:43;;;;;;;;;;;17.80;99.90;;;;;;5068118;28;19939;-61
2022/06/29 07:46:09;;;;;;;;;;;18.10;99.90;;;;;;5084221;28;20085;-60
2022/06/29 07:48:35;;;;;;;;;;;18.20;99.90;;;;;;5062202;28;20344;-60
2022/06/29 07:51:01;;;;;;;;;;;18.00;99.90;;;;;;5087483;28;19915;-61
2022/06/29 07:53:29;;;;;;;;;;;17.90;99.90;;;;;;5084138;28;19912;-62
2022/06/29 07:55:55;;;;;;;;;;;17.70;99.90;;;;;;5087949;28;19919;-61
2022/06/29 07:58:21;;;;;;;;;;;17.60;99.90;;;;;;5089054;28;19920;-60
2022/06/29 08:00:47;;;;;;;;;;;17.50;99.90;;;;;;5086634;28;19912;-60
2022/06/29 08:03:12;;;;;;;;;;;17.70;99.90;;;;;;5088497;28;19974;-60
2022/06/29 08:05:38;;;;;;;;;;;18.00;99.90;;;;;;5089701;28;19919;-61
2022/06/29 08:08:04;;;;;;;;;;;18.10;99.90;;;;;;5090549;28;20370;-60
2022/06/29 08:10:31;;;;;;;;;;;18.10;99.90;;;;;;5091322;28;19947;-60
2022/06/29 08:12:57;;;;;;;;;;;18.00;99.90;;;;;;5088809;28;20318;-61
2022/06/29 08:15:23;;;;;;;;;;;18.10;99.90;;;;;;5091207;28;19919;-61
2022/06/29 08:17:48;;;;;;;;;;;18.10;99.90;;;;;;5089711;28;19940;-60
2022/06/29 08:20:14;;;;;;;;;;;18.10;99.90;;;;;;5088950;28;19963;-60
2022/06/29 08:22:40;;;;;;;;;;;18.10;99.90;;;;;;5090404;28;19919;-61
2022/06/29 08:25:06;;;;;;;;;;;18.00;99.90;;;;;;5086252;28;19989;-61
2022/06/29 08:27:34;;;;;;;;;;;17.90;99.90;;;;;;5090300;28;19916;-60
2022/06/29 08:30:00;;;;;;;;;;;18.00;99.90;;;;;;5089519;28;19912;-60
2022/06/29 08:32:26;;;;;;;;;;;18.10;99.90;;;;;;5085332;28;19918;-61
2022/06/29 08:34:51;;;;;;;;;;;18.20;99.90;;;;;;5068347;28;19912;-60
2022/06/29 08:37:17;;;;;;;;;;;18.30;99.90;;;;;;5085639;28;19923;-61
2022/06/29 08:39:43;;;;;;;;;;;18.30;99.90;;;;;;5066949;28;20352;-61
2022/06/29 08:42:10;;;;;;;;;;;18.40;99.90;;;;;;5086493;28;19940;-58
2022/06/29 08:44:37;;;;;;;;;;;18.50;99.90;;;;;;5080386;28;19990;-55
2022/06/29 08:47:06;;;;;;;;;;;18.50;99.90;;;;;;5052032;28;20349;-57
2022/06/29 08:49:32;;;;;;;;;;;18.50;99.90;;;;;;5087314;28;19912;-56
2022/06/29 08:51:58;;;;;;;;;;;18.60;99.90;;;;;;5083273;28;20394;-58
2022/06/29 08:54:25;;;;;;;;;;;18.70;99.90;;;;;;5071789;28;20159;-58
2022/06/29 08:56:54;;;;;;;;;;;18.70;99.90;;;;;;5089991;28;20258;-58
2022/06/29 08:59:21;;;;;;;;;;;18.80;99.90;;;;;;5080676;28;20442;-58
2022/06/29 09:01:47;;;;;;;;;;;18.60;99.90;;;;;;5081185;28;19912;-57
2022/06/29 09:04:13;;;;;;;;;;;18.50;99.90;;;;;;5087935;28;19920;-56
2022/06/29 09:06:38;;;;;;;;;;;18.40;99.90;;;;;;5090300;28;19934;-58
2022/06/29 09:09:04;;;;;;;;;;;18.40;99.90;;;;;;5086260;28;20002;-58
2022/06/29 09:11:30;;;;;;;;;;;18.50;99.90;;;;;;5086657;28;19919;-57
2022/06/29 09:14:12;;;;;;;;;;;18.50;99.90;;;;;;5085363;28;19923;-59
2022/06/29 09:16:55;;;;;;;;;;;18.70;99.90;;;;;;5080526;28;19965;-59
2022/06/29 09:19:22;;;;;;;;;;;18.80;99.90;;;;;;5081579;28;20725;-58
2022/06/29 09:21:48;;;;;;;;;;;18.80;99.90;;;;;;5081972;28;19913;-58
2022/06/29 09:24:18;;;;;;;;;;;18.80;99.90;;;;;;5084893;28;19920;-57
2022/06/29 09:26:47;;;;;;;;;;;18.70;99.90;;;;;;5083055;28;19996;-60
2022/06/29 09:29:27;;;;;;;;;;;18.30;99.90;;;;;;5084619;28;19938;-60
2022/06/29 09:32:01;;;;;;;;;;;18.10;99.90;;;;;;5075804;28;20051;-58
2022/06/29 09:34:28;;;;;;;;;;;17.80;99.90;;;;;;5081247;28;19919;-59
2022/06/29 09:36:57;;;;;;;;;;;17.90;99.90;;;;;;5085808;28;19923;-58
2022/06/29 09:39:32;;;;;;;;;;;18.10;99.90;;;;;;5060051;28;19920;-58
2022/06/29 09:41:58;;;;;;;;;;;18.40;99.90;;;;;;5081239;28;19912;-56
2022/06/29 09:44:24;;;;;;;;;;;18.80;99.90;;;;;;5081144;28;19934;-55
2022/06/29 09:46:51;;;;;;;;;;;19.00;99.90;;;;;;5081740;28;19916;-58
2022/06/29 09:49:17;;;;;;;;;;;19.10;99.90;;;;;;5084145;28;19916;-58
2022/06/29 09:51:43;;;;;;;;;;;19.20;99.90;;;;;;5077671;28;19912;-56
2022/06/29 09:54:10;;;;;;;;;;;19.30;99.90;;;;;;5083913;28;19924;-60
2022/06/29 09:56:41;;;;;;;;;;;19.50;99.90;;;;;;5082081;28;19918;-57
2022/06/29 09:59:08;;;;;;;;;;;19.80;99.90;;;;;;5082598;28;19959;-56
2022/06/29 10:04:19;;;;;;;;;;;19.80;99.90;;;;;;5081529;28;20453;-57
2022/06/29 10:06:45;;;;;;;;;;;19.70;99.90;;;;;;5078657;28;19912;-56
2022/06/29 10:09:11;;;;;;;;;;;19.70;99.90;;;;;;5076371;28;20435;-58
2022/06/29 10:14:43;;;;;;;;;;;19.90;99.90;;;;;;5084232;28;19965;-56
2022/06/29 10:17:14;;;;;;;;;;;19.40;99.90;;;;;;5086638;28;19912;-56
2022/06/29 10:19:52;;;;;;;;;;;19.20;99.90;;;;;;5083541;28;19920;-56
2022/06/29 10:22:17;;;;;;;;;;;19.00;99.90;;;;;;5087405;28;19912;-55
2022/06/29 10:25:02;;;;;;;;;;;18.90;99.90;;;;;;5089108;28;20392;-58
2022/06/29 10:27:28;;;;;;;;;;;18.80;99.90;;;;;;5069006;28;19965;-56
2022/06/29 10:30:12;;;;;;;;;;;18.80;99.90;;;;;;5087181;28;19920;-56
2022/06/29 10:32:38;;;;;;;;;;;18.70;99.90;;;;;;5075894;28;21086;-54
2022/06/29 10:35:07;;;;;;;;;;;18.70;99.90;;;;;;5084512;28;19912;-59
2022/06/29 10:37:33;;;;;;;;;;;18.70;99.90;;;;;;5070562;28;20329;-56
2022/06/29 10:40:04;;;;;;;;;;;18.90;99.90;;;;;;5061977;28;19921;-57
2022/06/29 10:45:16;;;;;;;;;;;19.10;99.90;;;;;;5082438;28;20383;-58
2022/06/29 10:48:07;;;;;;;;;;;19.40;99.90;;;;;;5085439;28;19912;-58
2022/06/29 10:50:38;;;;;;;;;;;19.50;99.90;;;;;;5083228;28;19912;-56
2022/06/29 10:53:11;;;;;;;;;;;19.50;99.90;;;;;;5067684;28;19916;-58
2022/06/29 10:55:40;;;;;;;;;;;19.60;99.90;;;;;;5087196;28;19942;-54
2022/06/29 10:58:06;;;;;;;;;;;20.00;99.90;;;;;;5085633;28;19912;-57
2022/06/29 11:00:42;;;;;;;;;;;20.10;99.90;;;;;;5090546;28;19912;-58
2022/06/29 11:03:10;;;;;;;;;;;19.70;99.90;;;;;;5089153;28;19912;-56
2022/06/29 11:05:36;;;;;;;;;;;19.40;99.90;;;;;;5067745;28;19970;-57
2022/06/29 11:13:31;;;;;;;;;;;19.60;99.90;;;;;;5084910;28;20327;-58
2022/06/29 11:15:58;;;;;;;;;;;19.70;99.90;;;;;;5066591;28;20581;-56
2022/06/29 11:18:33;;;;;;;;;;;19.40;99.90;;;;;;5081817;28;19919;-56
2022/06/29 11:21:05;;;;;;;;;;;19.40;99.90;;;;;;5084491;28;20414;-58
2022/06/29 11:23:33;;;;;;;;;;;19.50;99.90;;;;;;5086359;28;19955;-54
2022/06/29 11:26:05;;;;;;;;;;;19.50;99.90;;;;;;5084329;28;20209;-57
2022/06/29 11:34:36;;;;;;;;;;;19.70;99.90;;;;;;5049074;28;20023;-82
2022/06/29 11:37:02;;;;;;;;;;;19.90;99.90;;;;;;5042466;28;19928;-81
2022/06/29 11:39:28;;;;;;;;;;;20.40;99.90;;;;;;5043730;28;19917;-82
2022/06/29 11:44:41;;;;;;;;;;;20.90;98.50;;;;;;5039697;28;19995;-81
2022/06/29 11:47:08;;;;;;;;;;;21.00;97.80;;;;;;5043117;28;19921;-80
2022/06/29 11:49:38;;;;;;;;;;;21.00;96.50;;;;;;5042432;28;20445;-81
2022/06/29 11:52:05;;;;;;;;;;;20.80;97.90;;;;;;5040360;28;19917;-82
2022/06/29 11:54:35;;;;;;;;;;;20.90;97.60;;;;;;5060607;28;19921;-82
2022/06/29 11:57:08;;;;;;;;;;;21.10;97.30;;;;;;5043647;28;19914;-80
2022/06/29 11:59:45;;;;;;;;;;;21.20;97.40;;;;;;5045570;28;19958;-81
2022/06/29 12:02:12;;;;;;;;;;;21.30;96.60;;;;;;5038322;28;20306;-81
2022/06/29 12:04:38;;;;;;;;;;;21.10;96.70;;;;;;5040146;28;19921;-80
2022/06/29 12:07:04;;;;;;;;;;;21.30;97.20;;;;;;5041902;28;19928;-81
2022/06/29 12:09:30;;;;;;;;;;;21.20;96.80;;;;;;5041237;28;19920;-79
2022/06/29 12:11:57;;;;;;;;;;;21.00;94.50;;;;;;5042856;28;19917;-79
2022/06/29 12:14:25;;;;;;;;;;;19.70;96.40;;;;;;5043626;28;19913;-80
2022/06/29 12:16:51;;;;;;;;;;;19.40;98.40;;;;;;5041407;28;20333;-80
2022/06/29 12:19:17;;;;;;;;;;;19.10;99.40;;;;;;5041738;28;19913;-81
2022/06/29 12:21:43;;;;;;;;;;;19.00;99.90;;;;;;5045741;28;19917;-80
2022/06/29 12:24:09;;;;;;;;;;;19.00;99.90;;;;;;5058909;28;19933;-81
2022/06/29 12:26:35;;;;;;;;;;;18.70;99.90;;;;;;5040561;28;20000;-80
2022/06/29 12:29:00;;;;;;;;;;;18.50;99.90;;;;;;5045292;28;19921;-82
2022/06/29 12:31:26;;;;;;;;;;;18.30;99.90;;;;;;5042671;28;19917;-79
2022/06/29 12:33:51;;;;;;;;;;;18.20;99.90;;;;;;5059478;28;19936;-80
2022/06/29 12:36:17;;;;;;;;;;;18.20;99.90;;;;;;5039544;28;19913;-82
2022/06/29 12:38:43;;;;;;;;;;;18.30;99.90;;;;;;5039600;28;19981;-81
2022/06/29 12:41:11;;;;;;;;;;;18.20;99.90;;;;;;5053968;28;19961;-82
2022/06/29 12:43:37;;;;;;;;;;;18.30;99.90;;;;;;5031527;28;20393;-81
2022/06/29 12:46:03;;;;;;;;;;;18.30;99.90;;;;;;5055290;28;19948;-80
2022/06/29 12:48:29;;;;;;;;;;;18.10;99.90;;;;;;5041092;28;19932;-81
2022/06/29 12:50:54;;;;;;;;;;;18.20;99.90;;;;;;5032576;28;19981;-81
2022/06/29 12:53:22;;;;;;;;;;;18.20;99.90;;;;;;5047518;28;19920;-80
2022/06/29 12:55:54;;;;;;;;;;;18.30;99.90;;;;;;5051235;28;19975;-81
2022/06/29 12:58:20;;;;;;;;;;;18.40;99.90;;;;;;5051734;28;19939;-82
2022/06/29 13:00:46;;;;;;;;;;;18.30;99.90;;;;;;5064348;28;20000;-81
2022/06/29 13:03:12;;;;;;;;;;;18.20;99.90;;;;;;5043624;28;19935;-80
2022/06/29 13:05:41;;;;;;;;;;;17.90;99.90;;;;;;5046408;28;19928;-80
2022/06/29 13:08:07;;;;;;;;;;;17.80;99.90;;;;;;5058030;28;19925;-81
2022/06/29 13:10:33;;;;;;;;;;;17.90;99.90;;;;;;5043823;28;19921;-80
2022/06/29 13:15:34;;;;;;;;;;;17.90;99.90;;;;;;5376197;22;19936;-55
2022/06/29 13:18:02;;;;;;;;;;;17.90;99.90;;;;;;5003549;28;19917;-60
2022/06/29 13:20:27;;;;;;;;;;;17.90;99.90;;;;;;5001548;28;20016;-55
2022/06/29 13:22:54;;;;;;;;;;;17.90;99.90;;;;;;5002470;28;20035;-58
2022/06/29 13:25:21;;;;;;;;;;;17.90;99.90;;;;;;5004310;28;20034;-59
2022/06/29 13:27:49;;;;;;;;;;;17.90;99.90;;;;;;5002177;28;20358;-58
2022/06/29 13:30:15;;;;;;;;;;;18.10;99.90;;;;;;5004171;28;20260;-58
2022/06/29 13:32:40;;;;;;;;;;;18.60;99.90;;;;;;5005314;28;19925;-57
2022/06/29 13:35:06;;;;;;;;;;;18.90;99.90;;;;;;5004276;28;19967;-57
2022/06/29 13:37:32;;;;;;;;;;;19.10;99.90;;;;;;4997330;28;19914;-60
2022/06/29 13:39:58;;;;;;;;;;;19.30;99.90;;;;;;5001518;28;19918;-58
2022/06/29 13:42:23;;;;;;;;;;;19.10;99.90;;;;;;4989716;28;19925;-58
2022/06/29 13:44:49;;;;;;;;;;;19.00;99.90;;;;;;5006635;28;19918;-56
2022/06/29 13:47:15;;;;;;;;;;;18.80;99.90;;;;;;4990158;28;19964;-57
2022/06/29 13:49:40;;;;;;;;;;;18.80;99.90;;;;;;4990446;28;19909;-60
2022/06/29 13:52:06;;;;;;;;;;;18.60;99.90;;;;;;5007031;28;19920;-58
2022/06/29 13:54:31;;;;;;;;;;;18.80;99.90;;;;;;5007981;28;19948;-59
2022/06/29 13:56:57;;;;;;;;;;;18.80;99.90;;;;;;5007326;28;20005;-57
2022/06/29 13:59:53;;;;;;;;;;;18.70;99.90;;;;;;5004967;28;19929;-59
2022/06/29 14:02:19;;;;;;;;;;;18.60;99.90;;;;;;5007802;28;20705;-60
2022/06/29 14:04:45;;;;;;;;;;;18.40;99.90;;;;;;5007598;28;20016;-59
2022/06/29 14:07:10;;;;;;;;;;;17.80;99.90;;;;;;5005776;28;19972;-57
2022/06/29 14:09:36;;;;;;;;;;;17.50;99.90;;;;;;5009269;28;19914;-59
2022/06/29 14:12:02;;;;;;;;;;;17.20;99.90;;;;;;5001275;28;19972;-56
2022/06/29 14:14:28;;;;;;;;;;;17.10;99.90;;;;;;5006299;28;19928;-58
2022/06/29 14:16:53;;;;;;;;;;;17.00;99.90;;;;;;5007587;28;19913;-58
2022/06/29 14:19:19;;;;;;;;;;;17.00;99.90;;;;;;5002121;28;20434;-60
2022/06/29 14:21:44;;;;;;;;;;;17.10;99.90;;;;;;5004332;28;20391;-55
2022/06/29 14:24:10;;;;;;;;;;;17.10;99.90;;;;;;5002467;28;19917;-57
2022/06/29 14:26:35;;;;;;;;;;;17.00;99.90;;;;;;5003388;28;19917;-59
2022/06/29 14:29:01;;;;;;;;;;;17.00;99.90;;;;;;5002547;28;19913;-57
2022/06/29 14:31:27;;;;;;;;;;;16.90;99.90;;;;;;5003157;28;20007;-59
2022/06/29 14:33:52;;;;;;;;;;;17.00;99.90;;;;;;5007841;28;19921;-59
2022/06/29 14:36:21;;;;;;;;;;;17.40;99.90;;;;;;5008726;28;20012;-58
2022/06/29 14:38:46;;;;;;;;;;;17.60;99.90;;;;;;5006878;28;19920;-58
2022/06/29 14:41:12;;;;;;;;;;;17.70;99.90;;;;;;5008138;28;20000;-57
2022/06/29 14:43:38;;;;;;;;;;;17.90;99.90;;;;;;5009554;28;19914;-57
2022/06/29 14:46:03;;;;;;;;;;;18.30;99.90;;;;;;5007745;28;19918;-57
2022/06/29 14:48:29;;;;;;;;;;;18.70;99.90;;;;;;5008208;28;19917;-56
2022/06/29 14:50:55;;;;;;;;;;;18.70;99.90;;;;;;5003870;28;19922;-59